createdAt,value
2019-01-23T00:01:29.198Z,-2.39
2019-01-23T00:03:59.164Z,-2.41
2019-01-23T00:06:29.154Z,-2.51
2019-01-23T00:08:59.798Z,-2.52
2019-01-23T00:11:30.294Z,-2.38
2019-01-23T00:14:00.381Z,-2.28
2019-01-23T00:16:30.562Z,-2.37
2019-01-23T00:19:00.528Z,-2.36
2019-01-23T00:21:30.715Z,-2.38
2019-01-23T00:24:00.783Z,-2.44
2019-01-23T00:26:31.080Z,-2.47
2019-01-23T00:29:00.972Z,-2.39
2019-01-23T00:31:31.528Z,-2.49
2019-01-23T00:34:01.806Z,-2.47
2019-01-23T00:36:32.235Z,-2.56
2019-01-23T00:39:02.459Z,-2.51
2019-01-23T00:41:32.738Z,-2.61
2019-01-23T00:44:02.652Z,-2.59
2019-01-23T00:46:33.051Z,-2.62
2019-01-23T00:49:03.218Z,-2.73
2019-01-23T00:51:33.861Z,-2.80
2019-01-23T00:54:04.260Z,-2.94
2019-01-23T00:56:34.182Z,-2.96
2019-01-23T00:59:04.404Z,-3.00
2019-01-23T01:01:34.399Z,-3.04
2019-01-23T01:04:04.627Z,-3.08
2019-01-23T01:06:34.616Z,-3.25
2019-01-23T01:09:08.405Z,-3.29
2019-01-23T01:11:38.768Z,-3.28
2019-01-23T01:14:08.839Z,-3.21
2019-01-23T01:16:38.829Z,-3.11
2019-01-23T01:23:04.345Z,-3.15
2019-01-23T01:25:34.422Z,-3.30
2019-01-23T01:28:04.793Z,-3.25
2019-01-23T01:30:34.818Z,-3.25
2019-01-23T01:33:05.290Z,-3.11
2019-01-23T01:35:35.332Z,-3.11
2019-01-23T01:38:06.032Z,-3.18
2019-01-23T01:44:08.902Z,-3.07
2019-01-23T01:46:39.186Z,-3.09
2019-01-23T02:05:22.868Z,-3.60
2019-01-23T02:07:53.143Z,-3.85
2019-01-23T02:10:23.683Z,-3.92
2019-01-23T02:12:54.282Z,-3.94
2019-01-23T02:15:24.775Z,-3.96
2019-01-23T02:17:55.060Z,-4.08
2019-01-23T02:26:36.053Z,-4.02
2019-01-23T02:29:09.547Z,-4.03
2019-01-23T02:31:38.154Z,-3.97
2019-01-23T02:37:58.248Z,-4.08
2019-01-23T02:40:28.163Z,-4.09
2019-01-23T02:42:58.254Z,-4.14
2019-01-23T02:45:28.200Z,-4.09
2019-01-23T02:47:58.266Z,-4.18
2019-01-23T02:50:28.466Z,-4.32
2019-01-23T02:52:58.381Z,-4.52
2019-01-23T02:55:28.293Z,-4.61
2019-01-23T02:57:58.281Z,-4.70
2019-01-23T03:00:28.779Z,-4.84
2019-01-23T03:02:58.851Z,-5.02
2019-01-23T03:05:28.906Z,-5.15
2019-01-23T03:07:58.793Z,-5.30
2019-01-23T03:10:29.270Z,-5.43
2019-01-23T03:13:00.682Z,-5.52
2019-01-23T03:15:30.851Z,-5.68
2019-01-23T03:18:01.251Z,-5.74
2019-01-23T03:20:31.481Z,-5.86
2019-01-23T03:23:01.425Z,-5.94
2019-01-23T03:25:31.377Z,-5.97
2019-01-23T03:28:01.355Z,-6.13
2019-01-23T03:30:31.868Z,-6.28
2019-01-23T03:33:02.134Z,-6.34
2019-01-23T03:35:32.873Z,-6.35
2019-01-23T03:38:03.117Z,-6.33
2019-01-23T03:40:33.656Z,-6.45
2019-01-23T03:43:03.596Z,-6.43
2019-01-23T03:45:33.520Z,-6.61
2019-01-23T03:48:03.581Z,-6.58
2019-01-23T03:50:34.047Z,-6.68
2019-01-23T03:53:04.838Z,-6.63
2019-01-23T03:55:35.045Z,-6.72
2019-01-23T03:58:05.344Z,-6.77
2019-01-23T04:00:35.436Z,-6.81
2019-01-23T04:03:05.988Z,-6.82
2019-01-23T04:05:36.075Z,-7.01
2019-01-23T04:08:06.157Z,-7.11
2019-01-23T04:10:36.075Z,-7.13
2019-01-23T04:13:06.299Z,-7.06
2019-01-23T04:15:36.442Z,-7.02
2019-01-23T04:18:06.829Z,-7.12
2019-01-23T04:20:36.751Z,-7.12
2019-01-23T04:23:07.195Z,-7.30
2019-01-23T04:25:37.085Z,-7.44
2019-01-23T04:28:06.976Z,-7.46
2019-01-23T04:30:36.929Z,-7.43
2019-01-23T04:33:07.059Z,-7.52
2019-01-23T04:35:37.376Z,-7.54
2019-01-23T04:38:07.794Z,-7.58
2019-01-23T04:40:37.922Z,-7.73
2019-01-23T04:43:08.063Z,-7.69
2019-01-23T04:45:38.590Z,-7.77
2019-01-23T04:48:08.470Z,-7.75
2019-01-23T04:50:56.094Z,-7.85
2019-01-23T04:53:32.445Z,-7.85
2019-01-23T04:56:02.681Z,-7.85
2019-01-23T04:58:32.680Z,-7.88
2019-01-23T05:01:02.566Z,-7.92
2019-01-23T05:03:32.714Z,-7.95
2019-01-23T05:06:04.444Z,-8.01
2019-01-23T05:08:34.602Z,-7.98
2019-01-23T05:14:55.246Z,-8.00
2019-01-23T05:17:25.163Z,-7.66
2019-01-23T05:19:55.056Z,-7.32
2019-01-23T05:22:24.991Z,-7.30
2019-01-23T05:28:21.095Z,-6.96
2019-01-23T05:38:23.484Z,-6.80
2019-01-23T05:40:54.614Z,-6.92
2019-01-23T05:43:24.961Z,-7.11
2019-01-23T05:45:54.866Z,-7.12
2019-01-23T05:48:24.778Z,-7.34
2019-01-23T05:50:54.806Z,-7.40
2019-01-23T05:53:24.807Z,-7.32
2019-01-23T05:55:54.941Z,-7.18
2019-01-23T05:58:24.852Z,-7.21
2019-01-23T06:00:54.979Z,-7.30
2019-01-23T06:03:25.121Z,-7.46
2019-01-23T06:05:55.012Z,-7.70
2019-01-23T06:08:25.021Z,-7.65
2019-01-23T06:10:54.931Z,-7.69
2019-01-23T06:17:15.717Z,-7.65
2019-01-23T06:26:46.838Z,-7.57
2019-01-23T06:29:16.769Z,-7.73
2019-01-23T06:31:46.927Z,-7.75
2019-01-23T06:34:17.056Z,-7.81
2019-01-23T06:36:46.962Z,-7.70
2019-01-23T06:39:16.843Z,-7.70
2019-01-23T06:41:47.013Z,-7.72
2019-01-23T06:44:16.974Z,-7.80
2019-01-23T06:46:46.865Z,-7.81
2019-01-23T06:49:16.742Z,-7.79
2019-01-23T06:51:47.132Z,-7.87
2019-01-23T06:54:17.271Z,-7.84
2019-01-23T06:56:47.152Z,-7.87
2019-01-23T06:59:17.067Z,-7.91
2019-01-23T07:01:47.404Z,-7.84
2019-01-23T07:04:17.290Z,-7.82
2019-01-23T07:06:47.446Z,-7.83
2019-01-23T07:09:17.337Z,-7.94
2019-01-23T07:11:47.241Z,-7.94
2019-01-23T07:14:17.113Z,-7.84
2019-01-23T07:16:47.774Z,-7.76
2019-01-23T07:19:17.773Z,-7.59
2019-01-23T07:21:47.946Z,-7.57
2019-01-23T07:24:18.072Z,-7.46
2019-01-23T07:26:48.212Z,-7.49
2019-01-23T07:29:18.629Z,-7.42
2019-01-23T07:31:48.839Z,-7.32
2019-01-23T07:34:18.771Z,-7.35
2019-01-23T07:40:33.175Z,-7.48
2019-01-23T07:43:03.447Z,-7.43
2019-01-23T07:52:15.554Z,-7.18
2019-01-23T07:54:45.466Z,-7.03
2019-01-23T07:57:15.432Z,-7.04
2019-01-23T07:59:45.347Z,-7.09
2019-01-23T08:02:15.789Z,-7.13
2019-01-23T08:04:45.768Z,-7.15
2019-01-23T08:07:15.979Z,-7.04
2019-01-23T08:09:46.146Z,-7.03
2019-01-23T08:12:16.080Z,-6.95
2019-01-23T08:14:46.122Z,-6.80
2019-01-23T08:17:16.204Z,-6.72
2019-01-23T08:19:46.075Z,-6.62
2019-01-23T08:22:16.013Z,-6.58
2019-01-23T08:24:45.907Z,-6.44
2019-01-23T08:27:16.064Z,-6.31
2019-01-23T08:29:46.259Z,-6.22
2019-01-23T08:32:16.470Z,-6.22
2019-01-23T08:34:46.419Z,-6.02
2019-01-23T08:37:16.522Z,-5.85
2019-01-23T08:39:46.829Z,-5.75
2019-01-23T08:42:16.972Z,-5.63
2019-01-23T08:48:38.550Z,-5.42
2019-01-23T08:51:08.836Z,-5.37
2019-01-23T08:53:39.218Z,-5.29
2019-01-23T08:56:09.500Z,-5.26
2019-01-23T08:58:39.391Z,-5.25
2019-01-23T09:01:09.702Z,-5.06
2019-01-23T09:03:39.614Z,-4.97
2019-01-23T09:06:09.743Z,-4.91
2019-01-23T09:08:39.953Z,-4.81
2019-01-23T09:11:10.252Z,-4.72
2019-01-23T09:13:40.181Z,-4.60
2019-01-23T09:16:10.346Z,-4.67
2019-01-23T09:18:40.578Z,-4.64
2019-01-23T09:21:10.741Z,-4.65
2019-01-23T09:23:40.893Z,-4.47
2019-01-23T09:26:11.201Z,-4.45
2019-01-23T09:28:41.160Z,-4.41
2019-01-23T09:32:05.220Z,-4.44
2019-01-23T09:35:01.086Z,-4.40
2019-01-23T09:38:06.018Z,-4.32
2019-01-23T09:41:17.485Z,-4.19
2019-01-23T09:44:22.793Z,-4.09
2019-01-23T09:47:17.154Z,-3.89
2019-01-23T09:50:29.738Z,-3.87
2019-01-23T09:53:18.869Z,-3.67
2019-01-23T09:55:49.128Z,-3.63
2019-01-23T09:58:19.037Z,-3.52
2019-01-23T10:00:49.057Z,-3.44
2019-01-23T10:03:23.111Z,-3.32
2019-01-23T10:05:51.047Z,-3.24
2019-01-23T10:08:20.973Z,-3.08
2019-01-23T10:22:12.789Z,-3.22
2019-01-23T10:24:43.058Z,-3.22
2019-01-23T10:27:12.946Z,-3.06
2019-01-23T10:29:42.932Z,-2.86
2019-01-23T10:32:13.133Z,-2.72
2019-01-23T10:34:43.051Z,-2.53
2019-01-23T10:37:19.376Z,-2.38
2019-01-23T10:39:44.646Z,-2.24
2019-01-23T10:42:14.872Z,-2.17
2019-01-23T10:44:44.813Z,-1.92
2019-01-23T10:47:14.998Z,-1.64
2019-01-23T10:49:44.910Z,-1.60
2019-01-23T10:52:14.872Z,-1.43
2019-01-23T10:54:44.813Z,-1.45
2019-01-23T10:57:15.087Z,-1.26
2019-01-23T10:59:45.525Z,-1.29
2019-01-23T11:06:06.915Z,-1.70
2019-01-23T11:08:36.809Z,-1.32
2019-01-23T11:11:06.927Z,-0.99
2019-01-23T11:13:36.898Z,-0.55
2019-01-23T11:16:07.305Z,-0.37
2019-01-23T11:18:37.279Z,-0.21
2019-01-23T11:21:07.340Z,0.01
2019-01-23T11:23:37.573Z,0.26
2019-01-23T11:26:07.846Z,0.08
2019-01-23T11:28:38.214Z,0.32
2019-01-23T11:31:08.097Z,0.44
2019-01-23T11:33:38.213Z,1.02
2019-01-23T11:36:08.157Z,1.62
2019-01-23T11:38:38.047Z,1.91
2019-01-23T11:41:08.085Z,1.87
2019-01-23T11:43:38.325Z,1.76
2019-01-23T11:46:08.242Z,2.79
2019-01-23T11:48:38.761Z,3.48
2019-01-23T11:51:08.935Z,3.00
2019-01-23T11:53:38.992Z,3.29
2019-01-23T11:59:53.975Z,3.03
2019-01-23T12:02:30.561Z,3.27
2019-01-23T12:11:22.113Z,3.84
2019-01-23T12:13:52.017Z,3.28
2019-01-23T12:16:22.275Z,2.74
2019-01-23T12:18:52.693Z,2.00
2019-01-23T12:21:22.865Z,1.47
2019-01-23T12:23:58.224Z,1.13
2019-01-23T12:26:24.680Z,1.41
2019-01-23T12:28:54.644Z,1.57
2019-01-23T12:31:24.867Z,1.82
2019-01-23T12:33:54.769Z,2.28
2019-01-23T12:36:24.650Z,2.81
2019-01-23T12:38:55.343Z,2.19
2019-01-23T12:41:25.309Z,1.84
2019-01-23T12:43:55.367Z,1.21
2019-01-23T12:46:26.211Z,1.00
2019-01-23T12:48:56.180Z,1.22
2019-01-23T12:51:26.469Z,1.16
2019-01-23T12:57:47.631Z,1.33
2019-01-23T13:00:22.037Z,1.24
2019-01-23T13:02:52.756Z,1.43
2019-01-23T13:05:23.058Z,1.02
2019-01-23T13:07:53.677Z,1.38
2019-01-23T13:10:24.553Z,0.97
2019-01-23T13:12:55.137Z,0.77
2019-01-23T13:15:26.684Z,0.78
2019-01-23T13:17:56.971Z,0.91
2019-01-23T13:20:27.538Z,0.54
2019-01-23T13:22:57.595Z,0.83
2019-01-23T13:25:29.208Z,0.76
2019-01-23T13:28:02.111Z,0.89
2019-01-23T13:30:32.397Z,0.89
2019-01-23T13:33:03.187Z,0.90
2019-01-23T13:35:36.835Z,0.80
2019-01-23T13:38:10.905Z,0.54
2019-01-23T13:40:40.995Z,0.71
2019-01-23T13:43:11.197Z,0.74
2019-01-23T13:45:41.950Z,0.62
2019-01-23T13:48:12.451Z,0.62
2019-01-23T13:54:34.252Z,1.17
2019-01-23T13:57:42.118Z,0.96
2019-01-23T14:09:49.324Z,0.63
2019-01-23T14:12:20.064Z,0.54
2019-01-23T14:18:41.097Z,0.32
2019-01-23T14:21:11.456Z,-0.03
2019-01-23T14:23:41.748Z,-0.32
2019-01-23T14:26:11.830Z,-0.08
2019-01-23T14:28:42.000Z,-0.24
2019-01-23T14:31:12.157Z,-0.13
2019-01-23T14:33:43.107Z,-0.09
2019-01-23T14:36:13.706Z,-0.38
2019-01-23T14:38:44.288Z,-0.48
2019-01-23T14:45:06.573Z,-0.48
2019-01-23T14:47:37.691Z,-0.35
2019-01-23T14:50:11.094Z,-0.36
2019-01-23T14:52:41.786Z,-0.29
2019-01-23T14:55:12.897Z,-0.25
2019-01-23T14:57:43.966Z,-0.09
2019-01-23T15:00:18.768Z,-0.15
2019-01-23T15:08:57.540Z,-0.36
2019-01-23T15:11:28.697Z,-0.66
2019-01-23T15:13:59.995Z,-0.65
2019-01-23T15:16:31.210Z,-0.61
2019-01-23T15:19:02.132Z,-0.51
2019-01-23T15:21:33.017Z,-0.49
2019-01-23T15:24:04.284Z,-0.46
2019-01-23T15:26:35.102Z,-0.48
2019-01-23T15:29:06.481Z,-0.59
2019-01-23T15:31:38.087Z,-1.09
2019-01-23T15:34:08.844Z,-1.05
2019-01-23T15:36:39.728Z,-0.93
2019-01-23T15:39:11.366Z,-0.92
2019-01-23T15:45:33.768Z,-1.06
2019-01-23T15:48:05.366Z,-1.07
2019-01-23T15:50:37.136Z,-1.15
2019-01-23T15:53:08.595Z,-1.61
2019-01-23T15:55:43.931Z,-1.64
2019-01-23T15:58:15.644Z,-1.61
2019-01-23T16:00:47.018Z,-1.67
2019-01-23T16:03:18.319Z,-1.65
2019-01-23T16:05:50.416Z,-1.65
2019-01-23T16:12:16.261Z,-1.70
2019-01-23T16:22:00.643Z,-1.75
2019-01-23T16:24:31.776Z,-1.58
2019-01-23T16:34:21.261Z,-1.85
2019-01-23T16:36:52.677Z,-1.85
2019-01-23T16:39:25.158Z,-1.86
2019-01-23T16:45:47.385Z,-1.77
2019-01-23T16:48:19.024Z,-1.70
2019-01-23T16:50:51.289Z,-1.73
2019-01-23T16:57:13.876Z,-1.70
2019-01-23T16:59:45.318Z,-1.68
2019-01-23T17:02:16.858Z,-1.62
2019-01-23T17:08:39.945Z,-1.84
2019-01-23T17:11:11.652Z,-1.88
2019-01-23T17:20:22.345Z,-1.92
2019-01-23T17:37:49.732Z,-1.99
2019-01-23T17:40:21.935Z,-2.02
2019-01-23T17:42:53.643Z,-1.83
2019-01-23T17:45:28.979Z,-1.71
2019-01-23T17:48:00.704Z,-1.71
2019-01-23T17:50:32.944Z,-1.74
2019-01-23T17:53:04.511Z,-1.96
2019-01-23T17:55:39.508Z,-1.97
2019-01-23T17:58:14.734Z,-1.93
2019-01-23T18:00:56.712Z,-2.04
2019-01-23T18:03:28.729Z,-2.10
2019-01-23T18:09:45.747Z,-2.24
2019-01-23T18:19:37.360Z,-2.18
2019-01-23T18:22:10.558Z,-2.17
2019-01-23T18:24:42.854Z,-2.17
2019-01-23T18:27:15.375Z,-2.10
2019-01-23T18:29:48.329Z,-2.09
2019-01-23T18:32:20.867Z,-2.11
2019-01-23T18:36:14.634Z,-2.16
2019-01-23T18:45:43.542Z,-2.32
2019-01-23T18:48:58.453Z,-2.26
2019-01-23T18:52:06.283Z,-2.21
2019-01-23T18:54:38.279Z,-2.37
2019-01-23T18:57:13.594Z,-2.31
2019-01-23T18:59:45.843Z,-2.33
2019-01-23T19:02:17.894Z,-2.31
2019-01-23T19:04:49.985Z,-2.20
2019-01-23T19:07:22.465Z,-2.23
2019-01-23T19:09:54.793Z,-2.18
2019-01-23T19:12:27.697Z,-2.26
2019-01-23T19:15:00.197Z,-2.26
2019-01-23T19:17:32.524Z,-2.31
2019-01-23T19:20:05.591Z,-2.27
2019-01-23T19:26:22.868Z,-2.31
2019-01-23T19:28:57.463Z,-2.25
2019-01-23T19:31:29.812Z,-2.28
2019-01-23T19:37:47.772Z,-2.56
2019-01-23T19:40:20.256Z,-2.47
2019-01-23T19:42:52.523Z,-2.38
2019-01-23T19:45:27.534Z,-2.50
2019-01-23T20:02:58.076Z,-2.47
2019-01-23T20:05:32.323Z,-2.52
2019-01-23T20:08:04.883Z,-2.42
2019-01-23T20:10:37.176Z,-2.39
2019-01-23T20:17:00.900Z,-2.52
2019-01-23T20:19:33.677Z,-2.56
2019-01-23T20:22:05.930Z,-2.50
2019-01-23T20:24:39.132Z,-2.49
2019-01-23T20:27:11.060Z,-2.47
2019-01-23T20:33:37.781Z,-2.58
2019-01-23T20:36:10.004Z,-2.50
2019-01-23T20:38:42.337Z,-2.49
2019-01-23T20:41:16.059Z,-2.49
2019-01-23T20:43:51.002Z,-2.41
2019-01-23T20:46:23.194Z,-2.37
2019-01-23T20:48:55.133Z,-2.41
2019-01-23T20:51:27.080Z,-2.47
2019-01-23T20:53:59.149Z,-2.60
2019-01-23T21:00:25.162Z,-2.63
2019-01-23T21:02:56.925Z,-2.72
2019-01-23T21:05:29.339Z,-2.77
2019-01-23T21:08:01.453Z,-2.74
2019-01-23T21:10:33.070Z,-2.84
2019-01-23T21:13:04.968Z,-2.82
2019-01-23T21:15:36.915Z,-2.81
2019-01-23T21:18:09.268Z,-2.81
2019-01-23T21:20:43.284Z,-3.22
2019-01-23T21:23:17.825Z,-3.22
2019-01-23T21:25:49.649Z,-3.38
2019-01-23T21:28:21.078Z,-3.39
2019-01-23T21:30:52.859Z,-3.59
2019-01-23T21:33:26.323Z,-3.55
2019-01-23T21:35:58.340Z,-3.57
2019-01-23T21:38:30.076Z,-3.61
2019-01-23T21:41:03.708Z,-3.66
2019-01-23T21:43:35.067Z,-3.64
2019-01-23T21:46:06.442Z,-3.69
2019-01-23T21:48:37.943Z,-3.63
2019-01-23T21:51:09.983Z,-3.61
2019-01-23T21:53:41.910Z,-3.62
2019-01-23T21:56:13.817Z,-3.58
2019-01-23T21:58:44.948Z,-3.59
2019-01-23T22:01:16.120Z,-3.69
2019-01-23T22:03:49.328Z,-3.65
2019-01-23T22:10:11.960Z,-3.76
2019-01-23T22:12:43.848Z,-3.80
2019-01-23T22:15:17.462Z,-3.76
2019-01-23T22:17:48.198Z,-3.78
2019-01-23T22:24:03.841Z,-3.68
2019-01-23T22:26:34.711Z,-3.68
2019-01-23T22:29:06.067Z,-3.76
2019-01-23T22:31:37.002Z,-3.73
2019-01-23T22:34:07.613Z,-3.71
2019-01-23T22:36:38.455Z,-3.76
2019-01-23T22:43:00.090Z,-3.85
2019-01-23T22:45:30.719Z,-3.77
2019-01-23T22:48:00.995Z,-3.83
2019-01-23T22:50:31.291Z,-3.74
2019-01-23T22:53:01.358Z,-3.90
2019-01-23T22:55:31.263Z,-3.91
2019-01-23T22:58:01.725Z,-3.90
2019-01-23T23:01:17.434Z,-3.99
2019-01-23T23:03:47.968Z,-4.05
2019-01-23T23:06:18.195Z,-4.11
2019-01-23T23:12:40.218Z,-4.12
2019-01-23T23:15:10.503Z,-4.09
2019-01-23T23:17:40.543Z,-3.98
2019-01-23T23:20:10.861Z,-3.91
2019-01-23T23:22:41.080Z,-3.95
2019-01-23T23:25:12.220Z,-3.91
2019-01-23T23:27:43.875Z,-3.88
2019-01-23T23:30:15.071Z,-3.87
2019-01-23T23:32:45.354Z,-3.84
2019-01-23T23:35:15.390Z,-3.88
2019-01-23T23:37:45.412Z,-3.88
2019-01-23T23:40:16.160Z,-3.92
2019-01-23T23:42:46.233Z,-3.96
2019-01-23T23:45:16.575Z,-3.99
2019-01-23T23:47:46.646Z,-4.02
2019-01-23T23:50:16.850Z,-4.00
2019-01-23T23:52:47.084Z,-3.93
2019-01-23T23:55:17.390Z,-3.94
2019-01-23T23:57:47.664Z,-3.85
